Time;durP1;ratioP1;P1;durP2;ratioP2;P2;SDS_P1;SDS_P2;PMS_P1;PMS_P2;Temp;Humidity;BMP_temperature;BMP_pressure;BME280_temperature;BME280_humidity;BME280_pressure;Samples;Min_cycle;Max_cycle;Signal;HPM_P1;HPM_P2
2023/07/10 00:00:24;;;;;;;19.05;12.88;;;28.30;79.90;;;;;;5050978;28;20044;-71
2023/07/10 00:03:29;;;;;;;21.95;13.25;;;28.30;79.60;;;;;;5050499;28;20052;-71
2023/07/10 00:06:33;;;;;;;21.77;13.73;;;28.30;79.60;;;;;;5051409;28;20052;-71
2023/07/10 00:09:37;;;;;;;24.33;14.60;;;28.20;79.90;;;;;;5051745;28;20385;-71
2023/07/10 00:12:42;;;;;;;17.77;14.27;;;28.20;80.10;;;;;;5051529;28;20051;-71
2023/07/10 00:15:46;;;;;;;22.15;13.30;;;28.10;80.50;;;;;;5051585;28;20043;-71
2023/07/10 00:18:50;;;;;;;22.02;13.85;;;28.10;81.10;;;;;;5050466;28;20055;-71
2023/07/10 00:21:54;;;;;;;22.45;13.85;;;28.10;81.60;;;;;;5051087;28;20091;-71
2023/07/10 00:24:58;;;;;;;22.25;12.48;;;28.00;82.50;;;;;;5051680;28;20044;-71
2023/07/10 00:28:02;;;;;;;26.85;13.65;;;28.00;83.30;;;;;;5050989;28;20396;-71
2023/07/10 00:31:08;;;;;;;20.83;13.48;;;27.90;83.60;;;;;;5050293;28;20044;-71
2023/07/10 00:34:16;;;;;;;22.77;13.75;;;27.90;84.10;;;;;;5050450;28;20071;-71
2023/07/10 00:37:21;;;;;;;27.40;13.38;;;28.00;83.90;;;;;;5049439;28;20500;-71
2023/07/10 00:40:25;;;;;;;23.17;12.88;;;27.90;83.60;;;;;;5050540;28;20048;-71
2023/07/10 00:43:36;;;;;;;22.85;12.20;;;27.90;83.10;;;;;;5051171;28;20040;-71
2023/07/10 00:46:56;;;;;;;25.75;11.90;;;27.90;82.90;;;;;;5051098;28;20056;-70
2023/07/10 00:50:15;;;;;;;19.23;10.70;;;27.80;82.90;;;;;;5050360;28;20036;-71
2023/07/10 00:53:27;;;;;;;14.63;9.80;;;27.80;82.40;;;;;;5050963;28;20351;-71
2023/07/10 00:56:40;;;;;;;14.48;9.02;;;27.80;81.50;;;;;;5051012;28;20060;-71
2023/07/10 00:59:44;;;;;;;12.80;8.52;;;27.80;80.90;;;;;;5050246;28;20044;-71
2023/07/10 01:02:48;;;;;;;16.58;9.30;;;27.80;80.20;;;;;;5050957;28;20044;-71
2023/07/10 01:05:53;;;;;;;12.95;9.20;;;27.80;80.10;;;;;;5050867;28;20496;-71
2023/07/10 01:09:04;;;;;;;17.77;9.13;;;27.60;80.30;;;;;;5050732;28;20064;-71
2023/07/10 01:12:10;;;;;;;12.25;8.80;;;27.50;80.80;;;;;;5050881;28;20044;-71
2023/07/10 01:15:18;;;;;;;16.08;8.50;;;27.50;80.40;;;;;;5049811;28;20040;-71
2023/07/10 01:18:24;;;;;;;18.05;9.93;;;27.50;80.70;;;;;;5049645;28;20044;-71
2023/07/10 01:21:31;;;;;;;22.20;9.48;;;27.50;80.40;;;;;;5049610;28;20040;-71
2023/07/10 01:24:36;;;;;;;17.30;7.55;;;27.60;80.60;;;;;;5050008;28;20051;-71
2023/07/10 01:27:40;;;;;;;14.45;8.32;;;27.60;80.10;;;;;;5049500;28;20055;-71
2023/07/10 01:30:45;;;;;;;15.13;8.52;;;27.60;79.90;;;;;;5049982;28;20047;-71
2023/07/10 01:34:03;;;;;;;18.17;8.75;;;27.70;79.50;;;;;;5050551;28;20088;-70
2023/07/10 01:37:10;;;;;;;13.30;8.38;;;27.70;79.60;;;;;;5049826;28;20116;-71
2023/07/10 01:40:22;;;;;;;17.83;8.75;;;27.60;80.00;;;;;;5050490;28;20389;-71
2023/07/10 01:43:26;;;;;;;17.25;9.30;;;27.50;80.50;;;;;;5049838;28;20107;-71
2023/07/10 01:46:33;;;;;;;15.23;9.10;;;27.50;80.70;;;;;;5050400;28;20044;-71
2023/07/10 01:49:50;;;;;;;15.65;9.00;;;27.50;80.80;;;;;;5051925;28;20397;-71
2023/07/10 01:52:54;;;;;;;15.88;9.52;;;27.50;81.00;;;;;;5052998;28;20044;-71
2023/07/10 01:55:58;;;;;;;16.77;9.43;;;27.40;81.30;;;;;;5053635;28;20036;-71
2023/07/10 01:59:02;;;;;;;17.92;9.43;;;27.40;81.70;;;;;;5053319;28;20051;-71
2023/07/10 02:02:07;;;;;;;19.08;9.57;;;27.40;82.10;;;;;;5053110;28;20048;-71
2023/07/10 02:05:11;;;;;;;11.60;7.68;;;27.30;82.40;;;;;;5053966;28;20393;-71
2023/07/10 02:08:16;;;;;;;15.60;8.40;;;27.30;81.10;;;;;;5053455;28;20052;-70
2023/07/10 02:11:20;;;;;;;21.13;9.32;;;27.30;81.00;;;;;;5053312;28;20044;-70
2023/07/10 02:14:25;;;;;;;13.20;9.38;;;27.20;82.70;;;;;;5053816;28;20039;-70
2023/07/10 02:17:29;;;;;;;18.27;8.80;;;27.10;83.10;;;;;;5053470;28;20040;-70
2023/07/10 02:20:33;;;;;;;12.90;9.27;;;27.10;82.80;;;;;;5052406;28;20123;-70
2023/07/10 02:23:38;;;;;;;17.58;9.05;;;27.00;82.80;;;;;;5053549;28;20040;-70
2023/07/10 02:26:43;;;;;;;17.45;8.90;;;26.90;83.00;;;;;;5053022;28;20508;-70
2023/07/10 02:29:47;;;;;;;15.68;8.73;;;26.90;82.80;;;;;;5053584;28;20044;-70
2023/07/10 02:32:51;;;;;;;16.85;8.75;;;26.90;83.10;;;;;;5052311;28;20048;-70
2023/07/10 02:35:54;;;;;;;11.70;8.32;;;26.90;83.20;;;;;;5053171;28;20044;-70
2023/07/10 02:38:58;;;;;;;12.95;8.27;;;26.80;83.90;;;;;;5053201;28;20044;-70
2023/07/10 02:42:02;;;;;;;15.48;8.50;;;26.80;83.50;;;;;;5053035;28;20060;-70
2023/07/10 02:45:07;;;;;;;14.18;8.80;;;26.80;83.10;;;;;;5029424;28;20056;-70
2023/07/10 02:48:12;;;;;;;16.23;8.65;;;26.80;83.30;;;;;;5052721;28;20051;-70
2023/07/10 02:51:16;;;;;;;15.90;9.13;;;26.70;82.80;;;;;;5052919;28;20044;-70
2023/07/10 02:54:20;;;;;;;16.38;8.35;;;26.70;82.70;;;;;;5052105;28;20119;-70
2023/07/10 02:57:24;;;;;;;12.90;7.90;;;26.70;82.70;;;;;;5040621;28;20107;-70
2023/07/10 03:00:28;;;;;;;16.88;8.60;;;26.80;82.50;;;;;;5039548;28;20048;-70
2023/07/10 03:03:32;;;;;;;17.17;8.50;;;26.80;82.80;;;;;;5051853;28;20071;-70
2023/07/10 03:06:36;;;;;;;19.60;8.68;;;26.80;83.20;;;;;;5040347;28;20044;-70
2023/07/10 03:09:41;;;;;;;15.40;9.05;;;26.80;83.30;;;;;;5051690;28;20048;-70
2023/07/10 03:12:46;;;;;;;21.85;9.68;;;26.80;83.80;;;;;;5028904;28;20397;-70
2023/07/10 03:16:00;;;;;;;14.35;8.82;;;26.80;84.00;;;;;;5051538;28;20048;-70
2023/07/10 03:19:04;;;;;;;14.70;9.65;;;26.80;84.30;;;;;;5052399;28;20396;-70
2023/07/10 03:22:08;;;;;;;17.60;9.88;;;26.80;84.40;;;;;;5051477;28;20040;-70
2023/07/10 03:25:13;;;;;;;14.88;10.27;;;26.80;84.20;;;;;;5051408;28;20044;-70
2023/07/10 03:28:17;;;;;;;23.35;9.40;;;26.70;84.60;;;;;;5051850;28;20048;-70
2023/07/10 03:31:21;;;;;;;20.67;9.45;;;26.70;85.00;;;;;;5051301;28;20111;-70
2023/07/10 03:34:25;;;;;;;16.48;9.27;;;26.70;85.10;;;;;;5051247;28;20048;-71
2023/07/10 03:37:29;;;;;;;17.77;9.20;;;26.70;85.40;;;;;;5051096;28;20052;-71
2023/07/10 03:40:34;;;;;;;13.95;8.75;;;26.70;85.60;;;;;;5050890;28;20044;-71
2023/07/10 03:43:37;;;;;;;18.95;9.40;;;26.60;85.80;;;;;;5050996;28;20036;-71
2023/07/10 03:46:41;;;;;;;14.93;9.73;;;26.50;86.20;;;;;;5050910;28;20373;-71
2023/07/10 03:49:46;;;;;;;16.17;9.40;;;26.40;85.00;;;;;;5051140;28;20044;-71
2023/07/10 03:52:50;;;;;;;14.77;9.15;;;26.40;85.10;;;;;;5051118;28;20048;-71
2023/07/10 03:55:55;;;;;;;18.13;9.10;;;26.40;84.70;;;;;;5051776;28;20044;-71
2023/07/10 03:58:59;;;;;;;19.05;9.02;;;26.50;84.90;;;;;;5051600;28;20040;-71
2023/07/10 04:02:03;;;;;;;21.25;9.77;;;26.60;84.40;;;;;;5051731;28;20047;-70
2023/07/10 04:05:08;;;;;;;31.88;9.35;;;26.50;85.30;;;;;;5051731;28;20040;-71
2023/07/10 04:08:12;;;;;;;21.85;9.45;;;26.50;85.90;;;;;;5051417;28;20056;-71
2023/07/10 04:11:21;;;;;;;14.15;8.65;;;26.40;85.80;;;;;;5051473;28;20052;-71
2023/07/10 04:14:25;;;;;;;15.00;9.10;;;26.40;85.90;;;;;;5051347;28;20504;-71
2023/07/10 04:17:29;;;;;;;21.55;9.65;;;26.50;85.90;;;;;;5051250;28;20044;-71
2023/07/10 04:20:33;;;;;;;46.03;11.80;;;26.50;85.90;;;;;;5050974;28;20063;-71
2023/07/10 04:23:37;;;;;;;25.00;9.95;;;26.60;84.20;;;;;;5051316;28;20425;-71
2023/07/10 04:26:41;;;;;;;19.05;8.60;;;26.70;84.50;;;;;;5051038;28;20060;-71
2023/07/10 04:29:45;;;;;;;13.82;8.10;;;26.80;83.80;;;;;;5051273;28;20056;-69
2023/07/10 04:32:49;;;;;;;19.02;8.18;;;26.80;83.60;;;;;;5051062;28;20040;-70
2023/07/10 04:35:56;;;;;;;22.88;8.52;;;26.90;84.00;;;;;;5050978;28;20056;-70
2023/07/10 04:39:00;;;;;;;19.02;9.23;;;27.00;83.20;;;;;;5050973;28;20515;-71
2023/07/10 04:42:04;;;;;;;18.38;8.60;;;27.20;83.40;;;;;;5051202;28;20047;-70
2023/07/10 04:45:09;;;;;;;20.65;8.23;;;27.40;83.60;;;;;;5051173;28;20051;-70
2023/07/10 04:48:13;;;;;;;20.50;8.32;;;27.70;82.60;;;;;;5050944;28;20056;-70
2023/07/10 04:51:18;;;;;;;16.92;9.10;;;28.10;81.60;;;;;;5051052;28;20396;-70
2023/07/10 04:54:22;;;;;;;19.20;8.80;;;28.40;80.70;;;;;;5050978;28;20075;-70
2023/07/10 04:57:26;;;;;;;21.08;8.65;;;28.70;80.90;;;;;;5050888;28;20397;-70
2023/07/10 05:00:31;;;;;;;34.33;10.77;;;28.80;80.70;;;;;;5050102;28;20044;-70
2023/07/10 05:03:35;;;;;;;21.80;9.90;;;28.90;80.80;;;;;;5050923;28;20040;-70
2023/07/10 05:06:39;;;;;;;24.60;10.63;;;28.90;80.30;;;;;;5050575;28;20048;-70
2023/07/10 05:09:43;;;;;;;25.02;9.45;;;29.00;80.00;;;;;;5050728;28;20064;-71
2023/07/10 05:12:47;;;;;;;17.48;8.25;;;29.20;79.40;;;;;;5038430;28;20039;-71
2023/07/10 05:15:53;;;;;;;21.83;8.75;;;29.30;77.90;;;;;;5050794;28;20052;-73
2023/07/10 05:18:57;;;;;;;30.48;10.38;;;29.60;77.80;;;;;;5050618;28;20052;-74
2023/07/10 05:22:01;;;;;;;23.08;9.45;;;29.80;78.30;;;;;;5049910;28;20108;-73
2023/07/10 05:25:05;;;;;;;16.70;8.27;;;30.10;77.00;;;;;;5053753;28;20393;-74
2023/07/10 05:28:10;;;;;;;24.35;9.00;;;30.40;75.30;;;;;;5054212;28;20063;-75
2023/07/10 05:31:14;;;;;;;27.05;9.88;;;30.60;76.70;;;;;;5054314;28;20055;-75
2023/07/10 05:34:22;;;;;;;29.95;9.05;;;30.80;75.90;;;;;;5054523;28;20040;-75
2023/07/10 05:37:26;;;;;;;22.10;8.35;;;30.90;75.70;;;;;;5054163;28;20104;-75
2023/07/10 05:40:30;;;;;;;15.27;7.72;;;31.10;74.20;;;;;;5053711;28;20504;-75
2023/07/10 05:43:35;;;;;;;22.35;8.13;;;31.20;73.10;;;;;;5053546;28;20540;-76
2023/07/10 05:46:39;;;;;;;21.02;7.65;;;31.30;72.90;;;;;;5053428;28;20048;-75
2023/07/10 05:49:44;;;;;;;23.58;7.93;;;31.50;72.30;;;;;;5054069;28;20056;-75
2023/07/10 05:52:47;;;;;;;20.70;8.10;;;31.70;71.70;;;;;;5053155;28;20048;-75
2023/07/10 05:55:56;;;;;;;18.15;7.75;;;31.60;71.80;;;;;;5053548;28;20048;-75
2023/07/10 05:59:01;;;;;;;19.38;8.48;;;31.70;71.80;;;;;;5053812;28;20044;-75
2023/07/10 06:02:05;;;;;;;23.52;8.50;;;31.70;71.10;;;;;;5053800;28;20071;-75
2023/07/10 06:05:09;;;;;;;21.27;7.43;;;31.80;71.00;;;;;;5053781;28;20405;-76
2023/07/10 06:08:13;;;;;;;24.42;8.25;;;31.90;69.90;;;;;;5053809;28;20056;-76
2023/07/10 06:11:19;;;;;;;14.68;7.35;;;32.10;70.10;;;;;;5053587;28;20064;-75
2023/07/10 06:14:22;;;;;;;19.83;7.65;;;32.40;70.20;;;;;;5053609;28;20040;-76
2023/07/10 06:17:27;;;;;;;24.52;7.97;;;32.60;70.10;;;;;;5053265;28;20044;-76
2023/07/10 06:20:31;;;;;;;33.22;8.18;;;32.60;69.80;;;;;;5053276;28;20052;-72
2023/07/10 06:23:36;;;;;;;27.08;7.65;;;32.80;69.90;;;;;;5053561;28;20036;-75
2023/07/10 06:26:41;;;;;;;13.55;7.50;;;33.10;69.80;;;;;;5053422;28;20048;-78
2023/07/10 06:29:45;;;;;;;20.02;8.00;;;33.30;69.00;;;;;;5053382;28;20048;-76
2023/07/10 06:32:50;;;;;;;21.35;7.78;;;33.40;68.60;;;;;;5053615;28;20044;-77
2023/07/10 06:35:54;;;;;;;14.15;6.90;;;33.50;68.70;;;;;;5051951;28;20048;-79
2023/07/10 06:38:58;;;;;;;12.27;7.28;;;33.50;67.80;;;;;;5053426;28;20396;-84
2023/07/10 06:42:02;;;;;;;20.50;7.57;;;33.50;68.10;;;;;;5052989;28;20048;-77
2023/07/10 06:45:11;;;;;;;15.18;7.30;;;33.70;68.60;;;;;;5052304;28;20032;-78
2023/07/10 06:48:16;;;;;;;30.45;9.07;;;33.90;68.30;;;;;;5051794;28;20056;-74
2023/07/10 06:51:20;;;;;;;13.02;7.05;;;34.10;67.30;;;;;;5053019;28;20036;-75
2023/07/10 06:54:24;;;;;;;24.50;7.55;;;34.20;67.10;;;;;;5052071;28;20048;-81
2023/07/10 06:57:28;;;;;;;26.63;7.95;;;34.30;67.20;;;;;;5052781;28;20472;-75
2023/07/10 07:00:32;;;;;;;25.58;7.65;;;34.50;66.80;;;;;;5052939;28;20103;-74
2023/07/10 07:03:36;;;;;;;18.60;6.97;;;34.50;67.30;;;;;;5052763;28;20040;-75
2023/07/10 07:06:39;;;;;;;19.98;7.75;;;34.60;67.20;;;;;;5052665;28;20040;-78
2023/07/10 07:09:43;;;;;;;21.70;8.32;;;34.70;66.00;;;;;;5052540;28;20405;-77
2023/07/10 07:12:47;;;;;;;18.20;7.50;;;34.60;66.20;;;;;;5052548;28;20081;-81
2023/07/10 07:15:53;;;;;;;22.02;7.47;;;34.70;66.80;;;;;;5052314;28;20044;-78
2023/07/10 07:18:57;;;;;;;17.45;7.63;;;35.00;65.50;;;;;;5052270;28;20040;-75
2023/07/10 07:22:03;;;;;;;21.65;8.52;;;35.20;64.90;;;;;;5040050;28;20052;-78
2023/07/10 07:25:07;;;;;;;19.65;7.57;;;35.00;64.90;;;;;;5052016;28;20048;-83
2023/07/10 07:28:12;;;;;;;14.13;7.38;;;35.10;65.90;;;;;;5052593;28;20055;-80
2023/07/10 07:31:16;;;;;;;22.98;8.20;;;35.30;65.80;;;;;;5052374;28;20491;-77
2023/07/10 07:34:21;;;;;;;21.42;8.10;;;35.40;65.60;;;;;;5052428;28;20080;-80
2023/07/10 07:37:25;;;;;;;21.77;7.93;;;35.50;66.00;;;;;;5052353;28;20063;-79
2023/07/10 07:40:29;;;;;;;20.20;7.45;;;35.70;65.00;;;;;;5051933;28;20044;-78
2023/07/10 07:43:33;;;;;;;19.38;7.43;;;35.80;64.80;;;;;;5052343;28;20056;-85
2023/07/10 07:46:38;;;;;;;24.30;8.00;;;35.90;64.70;;;;;;5051453;28;20507;-77
2023/07/10 07:49:42;;;;;;;15.00;6.82;;;36.00;64.50;;;;;;5051206;28;20064;-80
2023/07/10 07:52:46;;;;;;;18.73;7.80;;;36.20;64.30;;;;;;5051278;28;20052;-81
2023/07/10 07:55:50;;;;;;;15.40;6.90;;;36.10;63.70;;;;;;5051831;28;20040;-82
2023/07/10 07:58:54;;;;;;;19.35;6.65;;;36.10;64.00;;;;;;5051609;28;20432;-85
2023/07/10 08:01:58;;;;;;;18.58;7.68;;;36.10;64.40;;;;;;5051578;28;20504;-72
2023/07/10 08:05:02;;;;;;;15.30;6.50;;;36.20;62.80;;;;;;5051603;28;20048;-73
2023/07/10 08:08:09;;;;;;;15.02;6.28;;;36.20;61.80;;;;;;5051387;28;20059;-76
2023/07/10 08:11:15;;;;;;;22.70;7.40;;;36.30;61.90;;;;;;5051717;28;20051;-74
2023/07/10 08:14:18;;;;;;;14.63;6.70;;;36.40;61.40;;;;;;5051455;28;20044;-77
2023/07/10 08:17:23;;;;;;;14.82;6.20;;;36.30;61.30;;;;;;5051276;28;20048;-83
2023/07/10 08:20:26;;;;;;;21.67;6.00;;;36.50;60.00;;;;;;5050302;28;20686;-82
2023/07/10 08:23:31;;;;;;;14.50;6.40;;;36.40;60.90;;;;;;5050296;28;20071;-79
2023/07/10 08:26:35;;;;;;;14.85;5.90;;;36.50;61.10;;;;;;5050167;28;20040;-74
2023/07/10 08:29:39;;;;;;;14.88;5.57;;;36.60;60.70;;;;;;5051293;28;20064;-78
2023/07/10 08:32:43;;;;;;;14.32;6.72;;;36.70;59.10;;;;;;5051026;28;20040;-75
2023/07/10 08:36:04;;;;;;;25.17;8.13;;;36.90;59.40;;;;;;5051168;28;20492;-77
2023/07/10 08:39:08;;;;;;;21.20;6.63;;;36.90;59.50;;;;;;5048990;28;20048;-78
2023/07/10 08:42:20;;;;;;;16.40;6.45;;;36.90;59.00;;;;;;5049411;28;20055;-78
2023/07/10 08:45:34;;;;;;;17.10;6.10;;;36.80;59.10;;;;;;5049523;28;20044;-78
2023/07/10 08:48:46;;;;;;;15.55;5.68;;;36.80;58.30;;;;;;5049971;28;20442;-78
2023/07/10 08:52:03;;;;;;;18.90;5.68;;;36.80;55.80;;;;;;5050593;28;20040;-78
2023/07/10 08:55:16;;;;;;;14.50;5.63;;;36.80;57.20;;;;;;5050742;28;20048;-78
2023/07/10 08:58:27;;;;;;;18.15;6.43;;;36.60;56.00;;;;;;5051037;28;20044;-79
2023/07/10 09:01:41;;;;;;;11.15;5.68;;;36.40;57.50;;;;;;5055134;28;20052;-77
2023/07/10 09:04:47;;;;;;;18.92;5.72;;;36.40;57.10;;;;;;5055220;28;20052;-77
2023/07/10 09:07:54;;;;;;;10.82;6.10;;;36.50;56.40;;;;;;5055176;28;20052;-77
2023/07/10 09:11:03;;;;;;;16.10;6.40;;;36.40;57.50;;;;;;5054805;28;20068;-73
2023/07/10 09:14:13;;;;;;;16.67;5.65;;;36.50;57.00;;;;;;5053477;28;20040;-81
2023/07/10 09:17:47;;;;;;;9.07;5.57;;;36.50;57.10;;;;;;5052255;28;20060;-78
2023/07/10 09:20:59;;;;;;;13.32;6.13;;;36.60;57.20;;;;;;5054016;28;20056;-78
2023/07/10 09:24:04;;;;;;;14.52;5.93;;;36.80;56.10;;;;;;5054724;28;20435;-82
2023/07/10 09:27:13;;;;;;;17.00;5.93;;;36.80;56.60;;;;;;5054988;28;20124;-78
2023/07/10 09:30:30;;;;;;;16.75;6.65;;;36.90;56.00;;;;;;5056361;28;20056;-81
2023/07/10 09:33:42;;;;;;;14.68;5.82;;;36.90;56.30;;;;;;5056201;28;20056;-80
2023/07/10 09:36:51;;;;;;;11.70;6.43;;;36.90;54.70;;;;;;5057624;28;20040;-78
2023/07/10 09:39:55;;;;;;;14.57;6.22;;;36.80;52.20;;;;;;5054116;28;20047;-78
2023/07/10 09:43:14;;;;;;;13.68;5.65;;;37.40;51.20;;;;;;5057649;28;20040;-87
2023/07/10 09:46:29;;;;;;;15.90;4.60;;;39.10;50.90;;;;;;5053620;28;20044;-86
2023/07/10 09:49:40;;;;;;;6.28;4.65;;;40.00;47.30;;;;;;5055054;28;20072;-84
2023/07/10 09:52:52;;;;;;;15.23;5.15;;;40.40;48.70;;;;;;5053981;28;20044;-79
2023/07/10 09:55:56;;;;;;;9.15;5.68;;;40.90;48.30;;;;;;5053743;28;20052;-79
2023/07/10 09:58:59;;;;;;;19.88;7.00;;;41.10;48.10;;;;;;5054628;28;20040;-87
2023/07/10 10:02:23;;;;;;;13.27;5.30;;;40.80;49.30;;;;;;5054179;28;20079;-80
2023/07/10 10:05:28;;;;;;;13.40;5.70;;;41.00;48.70;;;;;;5054460;28;20040;-81
2023/07/10 10:08:45;;;;;;;13.15;5.22;;;40.70;47.70;;;;;;5052853;28;20135;-81
2023/07/10 10:11:52;;;;;;;11.13;5.00;;;40.60;47.10;;;;;;5054292;28;20036;-87
2023/07/10 10:15:02;;;;;;;15.82;4.90;;;40.30;47.00;;;;;;5053888;28;20495;-77
2023/07/10 10:18:17;;;;;;;17.40;4.90;;;40.50;47.50;;;;;;5054182;28;20044;-82
2023/07/10 10:21:22;;;;;;;14.07;4.82;;;40.80;46.70;;;;;;5053644;28;20512;-80
2023/07/10 10:24:32;;;;;;;8.73;4.55;;;40.80;46.80;;;;;;5053572;28;20044;-80
2023/07/10 10:27:55;;;;;;;11.18;5.05;;;40.90;47.10;;;;;;5052925;28;20052;-77
2023/07/10 10:31:03;;;;;;;14.50;5.18;;;40.80;47.00;;;;;;5053654;28;20059;-78
2023/07/10 10:34:34;;;;;;;15.27;5.20;;;40.00;46.40;;;;;;5053318;28;20048;-80
2023/07/10 10:38:08;;;;;;;15.27;4.90;;;40.80;46.80;;;;;;5052901;28;20687;-81
2023/07/10 10:41:26;;;;;;;12.07;4.60;;;41.30;45.60;;;;;;5053816;28;20055;-84
2023/07/10 10:44:48;;;;;;;10.05;5.07;;;41.70;45.80;;;;;;5052666;28;20064;-76
2023/07/10 10:48:31;;;;;;;12.50;4.97;;;40.80;45.30;;;;;;5051448;28;20064;-83
2023/07/10 10:51:41;;;;;;;8.38;4.07;;;39.50;46.20;;;;;;5050999;28;20036;-79
2023/07/10 10:54:48;;;;;;;11.13;4.18;;;38.90;47.30;;;;;;5051702;28;20077;-79
2023/07/10 10:58:12;;;;;;;15.75;4.25;;;38.50;47.60;;;;;;5052117;28;20056;-77
2023/07/10 11:01:54;;;;;;;8.80;4.50;;;38.30;48.00;;;;;;5052651;28;20044;-78
2023/07/10 11:05:10;;;;;;;6.10;3.72;;;38.00;47.60;;;;;;5051746;28;20044;-78
2023/07/10 11:08:29;;;;;;;9.32;3.92;;;37.90;48.80;;;;;;5052915;28;20063;-78
2023/07/10 11:11:37;;;;;;;8.40;4.57;;;37.90;49.40;;;;;;5053117;28;20226;-78
2023/07/10 11:14:42;;;;;;;7.97;4.35;;;37.90;50.40;;;;;;5052575;28;20052;-79
2023/07/10 11:17:50;;;;;;;9.25;4.50;;;37.80;48.70;;;;;;5052727;28;20055;-79
2023/07/10 11:20:55;;;;;;;7.55;4.15;;;37.80;49.10;;;;;;5051696;28;20504;-78
2023/07/10 11:24:26;;;;;;;13.90;4.93;;;37.70;49.00;;;;;;5052273;28;20044;-78
2023/07/10 11:27:42;;;;;;;9.10;4.38;;;37.60;48.70;;;;;;5052439;28;20040;-78
2023/07/10 11:30:50;;;;;;;7.75;4.28;;;37.50;49.30;;;;;;5052437;28;20060;-78
2023/07/10 11:34:14;;;;;;;7.85;4.35;;;37.40;49.00;;;;;;5052498;28;20039;-79
2023/07/10 11:37:47;;;;;;;7.63;4.57;;;37.40;49.10;;;;;;5052193;28;20488;-78
2023/07/10 11:40:51;;;;;;;6.90;4.35;;;37.30;49.50;;;;;;5051716;28;20043;-78
2023/07/10 11:44:16;;;;;;;7.40;4.57;;;37.20;49.50;;;;;;5052248;28;20056;-77
2023/07/10 11:47:26;;;;;;;10.30;4.55;;;37.10;49.90;;;;;;5051885;28;20044;-78
2023/07/10 11:50:30;;;;;;;26.73;6.07;;;37.20;50.20;;;;;;5052026;28;20056;-78
2023/07/10 11:53:34;;;;;;;18.63;5.50;;;37.20;50.50;;;;;;5050787;28;20044;-77
2023/07/10 11:56:58;;;;;;;18.35;5.63;;;37.20;50.60;;;;;;5051651;28;20055;-78
2023/07/10 12:00:14;;;;;;;12.65;5.90;;;37.30;55.90;;;;;;5051824;28;20048;-78
2023/07/10 12:03:18;;;;;;;12.55;6.82;;;37.30;58.50;;;;;;5051559;28;20036;-78
2023/07/10 12:06:24;;;;;;;20.02;6.35;;;37.20;59.50;;;;;;5051722;28;20052;-77
2023/07/10 12:09:28;;;;;;;15.63;6.38;;;37.20;59.30;;;;;;5051433;28;20056;-78
2023/07/10 12:12:33;;;;;;;18.83;6.63;;;37.30;58.80;;;;;;5052009;28;20040;-78
2023/07/10 12:15:39;;;;;;;14.35;6.18;;;37.20;60.00;;;;;;5051616;28;20051;-78
2023/07/10 12:18:43;;;;;;;9.73;5.80;;;37.20;60.60;;;;;;5051112;28;20053;-77
2023/07/10 12:21:47;;;;;;;12.05;6.45;;;37.20;60.20;;;;;;5051408;28;20419;-77
2023/07/10 12:24:58;;;;;;;14.07;5.65;;;37.20;60.80;;;;;;5051411;28;20044;-78
2023/07/10 12:28:14;;;;;;;11.00;6.55;;;37.10;60.10;;;;;;5051137;28;20048;-76
2023/07/10 12:31:18;;;;;;;14.82;6.43;;;37.00;59.20;;;;;;5051165;28;20143;-77
2023/07/10 12:34:30;;;;;;;12.27;6.25;;;37.00;59.00;;;;;;5051107;28;20044;-79
2023/07/10 12:37:35;;;;;;;17.98;7.05;;;37.00;59.90;;;;;;5051335;28;20052;-76
2023/07/10 12:40:40;;;;;;;17.35;6.85;;;36.90;59.40;;;;;;5051131;28;20044;-77
2023/07/10 12:43:51;;;;;;;14.75;6.30;;;38.30;59.00;;;;;;5051426;28;20048;-76
2023/07/10 12:47:04;;;;;;;13.13;7.25;;;39.80;57.60;;;;;;5051202;28;20055;-83
2023/07/10 12:50:08;;;;;;;14.70;6.43;;;40.20;55.30;;;;;;5050873;28;20052;-79
2023/07/10 12:53:25;;;;;;;20.60;6.60;;;40.50;58.00;;;;;;5049316;28;20514;-76
2023/07/10 12:56:37;;;;;;;19.30;7.15;;;40.40;58.20;;;;;;5050989;28;20048;-76
2023/07/10 12:59:42;;;;;;;10.13;6.05;;;40.50;55.90;;;;;;5051142;28;20044;-75
2023/07/10 13:02:50;;;;;;;15.55;6.15;;;40.50;57.00;;;;;;5051289;28;20044;-76
2023/07/10 13:05:58;;;;;;;14.73;6.03;;;40.50;56.50;;;;;;5051168;28;20056;-83
2023/07/10 13:09:05;;;;;;;10.93;5.78;;;40.90;57.10;;;;;;5050748;28;20051;-77
2023/07/10 13:12:26;;;;;;;10.18;6.40;;;40.60;55.80;;;;;;5050941;28;20040;-76
2023/07/10 13:15:37;;;;;;;22.35;7.40;;;40.20;56.70;;;;;;5050053;28;20044;-80
2023/07/10 13:18:41;;;;;;;20.75;6.75;;;40.00;56.70;;;;;;5051176;28;20393;-79
2023/07/10 13:21:45;;;;;;;17.92;6.57;;;39.60;57.60;;;;;;5051094;28;20099;-86
2023/07/10 13:24:49;;;;;;;17.00;7.47;;;39.60;58.70;;;;;;5050797;28;20499;-78
2023/07/10 13:27:52;;;;;;;26.42;8.60;;;39.50;58.90;;;;;;5050589;28;20112;-80
2023/07/10 13:30:56;;;;;;;16.25;6.65;;;39.90;58.70;;;;;;5050977;28;20048;-74
2023/07/10 13:34:01;;;;;;;15.40;6.60;;;40.20;58.80;;;;;;5050792;28;20048;-80
2023/07/10 13:37:15;;;;;;;10.35;6.40;;;40.40;58.30;;;;;;5051094;28;20401;-82
2023/07/10 13:40:22;;;;;;;15.40;6.30;;;40.50;57.90;;;;;;5050879;28;20056;-76
2023/07/10 13:43:26;;;;;;;14.00;6.88;;;40.20;59.10;;;;;;5050493;28;20108;-81
2023/07/10 13:46:31;;;;;;;11.65;7.00;;;40.00;59.40;;;;;;5053986;28;20040;-78
2023/07/10 13:49:35;;;;;;;15.00;6.82;;;39.80;60.40;;;;;;5054401;28;20060;-78
2023/07/10 13:52:41;;;;;;;12.80;6.43;;;40.10;58.60;;;;;;5053617;28;20056;-76
2023/07/10 13:55:48;;;;;;;14.20;6.53;;;39.80;58.80;;;;;;5054282;28;20052;-84
2023/07/10 13:58:52;;;;;;;14.88;5.95;;;39.80;58.80;;;;;;5054547;28;20044;-80
2023/07/10 14:01:56;;;;;;;13.65;6.10;;;39.60;59.90;;;;;;5053068;28;20531;-78
2023/07/10 14:05:07;;;;;;;14.90;6.85;;;39.40;60.30;;;;;;5053915;28;20052;-84
2023/07/10 14:08:26;;;;;;;22.60;7.53;;;39.70;59.30;;;;;;5054007;28;20077;-82
2023/07/10 14:11:31;;;;;;;17.85;6.85;;;39.90;58.90;;;;;;5053429;28;20055;-76
2023/07/10 14:14:34;;;;;;;13.38;6.43;;;39.90;59.50;;;;;;5053167;28;20040;-74
2023/07/10 14:17:39;;;;;;;15.15;6.78;;;39.80;59.70;;;;;;5053955;28;20047;-78
2023/07/10 14:20:43;;;;;;;14.18;7.50;;;40.10;59.20;;;;;;5053682;28;20064;-79
2023/07/10 14:23:48;;;;;;;16.55;6.93;;;39.80;59.70;;;;;;5053739;28;20067;-75
2023/07/10 14:26:52;;;;;;;68.63;9.93;;;39.60;60.80;;;;;;5053573;28;20500;-75
2023/07/10 14:29:56;;;;;;;15.23;6.03;;;39.40;60.80;;;;;;5053382;28;20051;-82
2023/07/10 14:33:00;;;;;;;15.77;6.47;;;39.30;60.80;;;;;;5053075;28;20385;-76
2023/07/10 14:36:13;;;;;;;17.52;7.40;;;39.40;61.10;;;;;;5053462;28;20056;-80
2023/07/10 14:39:16;;;;;;;10.45;6.63;;;39.60;60.10;;;;;;5052540;28;20032;-81
2023/07/10 14:42:25;;;;;;;13.07;6.78;;;39.60;60.10;;;;;;5053419;28;20048;-77
2023/07/10 14:45:29;;;;;;;21.73;7.55;;;39.30;60.10;;;;;;5053650;28;20048;-82
2023/07/10 14:48:33;;;;;;;26.35;7.35;;;39.50;60.80;;;;;;5053486;28;20496;-77
2023/07/10 14:51:37;;;;;;;10.40;6.72;;;39.10;61.20;;;;;;5051006;28;20052;-77
2023/07/10 14:54:40;;;;;;;19.05;9.38;;;38.60;61.60;;;;;;5050488;28;20048;-82
2023/07/10 14:57:44;;;;;;;17.65;6.72;;;38.20;62.00;;;;;;5051031;28;20080;-86
2023/07/10 15:00:50;;;;;;;18.80;6.63;;;37.90;62.60;;;;;;5052147;28;20389;-83
2023/07/10 15:03:54;;;;;;;22.35;6.55;;;37.60;63.60;;;;;;5052430;28;20052;-80
2023/07/10 15:06:58;;;;;;;25.85;6.32;;;37.30;63.30;;;;;;5052714;28;20047;-83
2023/07/10 15:10:16;;;;;;;18.45;10.13;;;37.20;63.20;;;;;;5053063;28;20056;-81
2023/07/10 15:13:22;;;;;;;22.45;6.57;;;37.10;63.50;;;;;;5052518;28;20040;-80
2023/07/10 15:16:27;;;;;;;15.48;6.75;;;36.90;63.70;;;;;;5052624;28;20393;-80
2023/07/10 15:19:32;;;;;;;22.60;7.45;;;36.80;64.20;;;;;;5052319;28;20048;-83
2023/07/10 15:22:36;;;;;;;12.25;5.93;;;37.70;63.40;;;;;;5052757;28;20100;-80
2023/07/10 15:25:40;;;;;;;24.75;7.28;;;39.10;61.40;;;;;;5052228;28;20056;-74
2023/07/10 15:28:43;;;;;;;18.33;6.18;;;39.80;60.40;;;;;;5052350;28;20179;-83
2023/07/10 15:31:58;;;;;;;15.95;6.22;;;39.90;60.00;;;;;;5052381;28;20072;-82
2023/07/10 15:38:33;;;;;;;14.02;6.28;;;39.20;59.90;;;;;;5052357;28;20048;-76
2023/07/10 15:41:38;;;;;;;18.25;6.22;;;39.30;59.90;;;;;;5051861;28;20060;-84
2023/07/10 15:44:46;;;;;;;17.70;7.00;;;39.30;60.10;;;;;;5052146;28;20036;-76
2023/07/10 15:47:54;;;;;;;21.00;6.55;;;39.50;60.10;;;;;;5051926;28;20056;-75
2023/07/10 15:50:58;;;;;;;18.60;6.68;;;39.60;59.40;;;;;;5052322;28;20525;-74
2023/07/10 15:54:01;;;;;;;18.80;7.20;;;39.50;59.70;;;;;;5051644;28;20389;-81
2023/07/10 15:57:05;;;;;;;23.17;7.13;;;39.50;59.90;;;;;;5052171;28;20048;-86
2023/07/10 16:00:18;;;;;;;15.77;7.45;;;39.60;59.70;;;;;;5052269;28;20056;-77
2023/07/10 16:03:32;;;;;;;15.10;7.38;;;39.70;58.40;;;;;;5052293;28;20047;-87